Guenther Schulte — VRGK8 — position and weather

sailwx.info

Track history (hours):
 
Tides and Currents Weather Stations Pressure Air Temp Water Temp Dewpoint Dewpoint Depression Visibility Wind Speed Wind Dir Waves Ship Positions

Guenther Schulte

Last reported at 2017-Sep-21 02:37 UTC. Time now 2017-Sep-21 21:24 UTC.
Position N 22°34' E 114°16'.

Length 231 m; draft 10.1 m.

Type: Ship (hazmat cat A). MMSI: 477728800.

Date/timePositionNaut miles runAvg speedWind from/ knotsBaromVisibWave heightAir tempDewpointWater temp
2017-Sep-21 02:37N 22°34' E 114°16'0 1.0
2017-Sep-21 02:30N 22°34' E 114°15'0 0.0
2017-Sep-21 01:59N 22°34' E 114°15'0 0.0
2017-Sep-20 23:12N 22°34' E 114°15'0 0.0
2017-Sep-20 22:41N 22°34' E 114°15'0 0.0
2017-Sep-20 22:23N 22°34' E 114°15'0 0.0
2017-Sep-20 21:59N 22°34' E 114°15'0 0.0
2017-Sep-20 21:23N 22°34' E 114°15'0 0.0
2017-Sep-20 20:48N 22°34' E 114°15'0 0.0
2017-Sep-20 20:29N 22°34' E 114°15'0 0.0
2017-Sep-20 19:05N 22°34' E 114°15'0 0.0
2017-Sep-20 18:59N 22°34' E 114°15'0 0.0
2017-Sep-20 18:29N 22°34' E 114°15'0 0.0
2017-Sep-20 18:00N 22°34' E 114°15'14012.8
2017-Sep-20 07:07N 22°23' E 116°46'218.9
2017-Sep-20 07:00N 22°24' E 116°48'918.5
2017-Sep-20 06:30N 22°29' E 116°56'917.9
2017-Sep-20 06:00N 22°33' E 117°05'714.3
2017-Sep-20 05:31N 22°37' E 117°11'815.4
2017-Sep-20 05:00N 22°42' E 117°18'918.2
2017-Sep-20 04:30N 22°48' E 117°26'917.4
2017-Sep-20 04:00N 22°54' E 117°32'3917.0
2017-Sep-20 01:42N 23°25' E 117°58'416.8
2017-Sep-20 01:29N 23°28' E 117°60'816.7
2017-Sep-20 01:00N 23°35' E 118°04'816.7
2017-Sep-20 00:30N 23°42' E 118°09'816.8
2017-Sep-20 00:00N 23°50' E 118°12'816.7
2017-Sep-19 23:30N 23°58' E 118°15'816.2
2017-Sep-19 23:00N 24°06' E 118°18'815.4
2017-Sep-19 22:30N 24°14' E 118°17'815.4
2017-Sep-19 22:00N 24°19' E 118°11'511.0
2017-Sep-19 21:30N 24°23' E 118°07'510.4
2017-Sep-19 21:00N 24°27' E 118°03'5 9.3
2017-Sep-19 20:30N 24°31' E 118°05'0 0.1
2017-Sep-19 19:59N 24°31' E 118°05'0 0.0
2017-Sep-19 19:21N 24°31' E 118°05'0 0.0
2017-Sep-19 18:57N 24°31' E 118°05'0 0.0
2017-Sep-19 17:15N 24°31' E 118°05'0 0.0
2017-Sep-19 17:00N 24°31' E 118°05'0 0.0
2017-Sep-19 12:06N 24°31' E 118°05'0 0.0
2017-Sep-19 11:57N 24°31' E 118°05'0 0.0
2017-Sep-19 08:14N 24°31' E 118°05'0 1.6
2017-Sep-19 07:58N 24°31' E 118°05'4 9.1
2017-Sep-19 07:30N 24°27' E 118°03'612.5
2017-Sep-19 07:00N 24°23' E 118°08'5 9.1
2017-Sep-19 06:30N 24°20' E 118°12'1 1.4
2017-Sep-19 05:56N 24°20' E 118°13'0 0.0
2017-Sep-19 05:29N 24°20' E 118°13'0 0.0
2017-Sep-19 04:56N 24°20' E 118°13'0 0.1
2017-Sep-19 04:23N 24°20' E 118°13'0 0.0
2017-Sep-19 03:59N 24°20' E 118°13'0 0.1
2017-Sep-19 03:26N 24°20' E 118°13'0 0.0
2017-Sep-19 02:56N 24°20' E 118°13'0 0.0
2017-Sep-19 02:29N 24°20' E 118°13'0 0.0
2017-Sep-19 01:59N 24°20' E 118°13'0 0.0
2017-Sep-19 01:29N 24°20' E 118°13'0 0.1
2017-Sep-19 00:56N 24°20' E 118°13'0 0.0
2017-Sep-19 00:29N 24°20' E 118°13'0 0.0
2017-Sep-18 23:59N 24°20' E 118°13'0 0.0
2017-Sep-18 23:29N 24°20' E 118°13'0 0.1
2017-Sep-18 22:59N 24°20' E 118°13'0 0.0
2017-Sep-18 22:29N 24°20' E 118°13'0 0.1
2017-Sep-18 21:59N 24°20' E 118°13'0 0.2
2017-Sep-18 21:26N 24°20' E 118°13'0 0.1
2017-Sep-18 20:59N 24°20' E 118°13'0 0.1
2017-Sep-18 20:29N 24°20' E 118°13'0 0.0
2017-Sep-18 19:59N 24°20' E 118°13'0 0.0
2017-Sep-18 19:29N 24°20' E 118°13'0 0.1
2017-Sep-18 18:59N 24°20' E 118°13'0 0.0
2017-Sep-18 18:29N 24°20' E 118°13'0 0.1
2017-Sep-18 17:59N 24°20' E 118°13'0 0.0
2017-Sep-18 17:29N 24°20' E 118°13'0 0.0
2017-Sep-18 16:59N 24°20' E 118°13'0 0.0
2017-Sep-18 16:29N 24°20' E 118°13'0 0.1
2017-Sep-18 15:56N 24°20' E 118°13'0 0.3
2017-Sep-18 15:26N 24°20' E 118°13'2 3.8
2017-Sep-18 15:00N 24°19' E 118°14'4 7.1
2017-Sep-18 14:30N 24°15' E 118°16'4 7.7
2017-Sep-18 13:56N 24°13' E 118°20'4411.1
2017-Sep-18 09:56N 24°20' E 119°08'511.6
2017-Sep-18 09:28N 24°19' E 119°14'511.5
2017-Sep-18 09:00N 24°19' E 119°20'611.4
2017-Sep-18 08:30N 24°18' E 119°26'511.0
2017-Sep-18 08:00N 24°18' E 119°32'510.5
2017-Sep-18 07:29N 24°18' E 119°38'610.7
2017-Sep-18 06:58N 24°17' E 119°44'610.8
2017-Sep-18 06:26N 24°17' E 119°50'112 3.5
2017-Sep-16 22:39N 23°17' E 118°07'210.7
2017-Sep-16 22:30N 23°16' E 118°05'1711.7
2017-Sep-16 21:03N 23°05' E 117°51'110.1
2017-Sep-16 20:59N 23°05' E 117°50'611.2
2017-Sep-16 20:28N 23°01' E 117°46'511.0
2017-Sep-16 20:00N 22°58' E 117°41'510.8
2017-Sep-16 19:30N 22°55' E 117°36'510.6
2017-Sep-16 19:00N 22°52' E 117°32'510.6
2017-Sep-16 18:30N 22°50' E 117°27'510.5
2017-Sep-16 18:00N 22°47' E 117°22'510.5
2017-Sep-16 17:30N 22°44' E 117°17'510.9
2017-Sep-16 17:00N 22°44' E 117°11'510.9
2017-Sep-16 16:30N 22°42' E 117°05'510.5
2017-Sep-16 15:59N 22°41' E 116°60'151 5.4
2017-Sep-15 11:51N 22°34' E 114°16'1 2.1
2017-Sep-15 11:26N 22°34' E 114°17'17 3.2
2017-Sep-15 06:12N 22°20' E 114°07'  
Track history (hours):
 
Tides and Currents Weather Stations Pressure Air Temp Water Temp Dewpoint Dewpoint Depression Visibility Wind Speed Wind Dir Waves Ship Positions

Guenther Schulte

Last reported at 2017-Sep-21 02:37 UTC. Time now 2017-Sep-21 21:24 UTC.
Position N 22°34' E 114°16'.

Length 231 m; draft 10.1 m.

Type: Ship (hazmat cat A). MMSI: 477728800.

Date/timePositionNaut miles runAvg speedWind from/ knotsBaromVisibWave heightAir tempDewpointWater temp
2017-Sep-21 02:37N 22°34' E 114°16'0 1.0
2017-Sep-21 02:30N 22°34' E 114°15'0 0.0
2017-Sep-21 01:59N 22°34' E 114°15'0 0.0
2017-Sep-20 23:12N 22°34' E 114°15'0 0.0
2017-Sep-20 22:41N 22°34' E 114°15'0 0.0
2017-Sep-20 22:23N 22°34' E 114°15'0 0.0
2017-Sep-20 21:59N 22°34' E 114°15'0 0.0
2017-Sep-20 21:23N 22°34' E 114°15'0 0.0
2017-Sep-20 20:48N 22°34' E 114°15'0 0.0
2017-Sep-20 20:29N 22°34' E 114°15'0 0.0
2017-Sep-20 19:05N 22°34' E 114°15'0 0.0
2017-Sep-20 18:59N 22°34' E 114°15'0 0.0
2017-Sep-20 18:29N 22°34' E 114°15'0 0.0
2017-Sep-20 18:00N 22°34' E 114°15'14012.8
2017-Sep-20 07:07N 22°23' E 116°46'218.9
2017-Sep-20 07:00N 22°24' E 116°48'918.5
2017-Sep-20 06:30N 22°29' E 116°56'917.9
2017-Sep-20 06:00N 22°33' E 117°05'714.3
2017-Sep-20 05:31N 22°37' E 117°11'815.4
2017-Sep-20 05:00N 22°42' E 117°18'918.2
2017-Sep-20 04:30N 22°48' E 117°26'917.4
2017-Sep-20 04:00N 22°54' E 117°32'3917.0
2017-Sep-20 01:42N 23°25' E 117°58'416.8
2017-Sep-20 01:29N 23°28' E 117°60'816.7
2017-Sep-20 01:00N 23°35' E 118°04'816.7
2017-Sep-20 00:30N 23°42' E 118°09'816.8
2017-Sep-20 00:00N 23°50' E 118°12'816.7
2017-Sep-19 23:30N 23°58' E 118°15'816.2
2017-Sep-19 23:00N 24°06' E 118°18'815.4
2017-Sep-19 22:30N 24°14' E 118°17'815.4
2017-Sep-19 22:00N 24°19' E 118°11'511.0
2017-Sep-19 21:30N 24°23' E 118°07'510.4
2017-Sep-19 21:00N 24°27' E 118°03'5 9.3
2017-Sep-19 20:30N 24°31' E 118°05'0 0.1
2017-Sep-19 19:59N 24°31' E 118°05'0 0.0
2017-Sep-19 19:21N 24°31' E 118°05'0 0.0
2017-Sep-19 18:57N 24°31' E 118°05'0 0.0
2017-Sep-19 17:15N 24°31' E 118°05'0 0.0
2017-Sep-19 17:00N 24°31' E 118°05'0 0.0
2017-Sep-19 12:06N 24°31' E 118°05'0 0.0
2017-Sep-19 11:57N 24°31' E 118°05'0 0.0
2017-Sep-19 08:14N 24°31' E 118°05'0 1.6
2017-Sep-19 07:58N 24°31' E 118°05'4 9.1
2017-Sep-19 07:30N 24°27' E 118°03'612.5
2017-Sep-19 07:00N 24°23' E 118°08'5 9.1
2017-Sep-19 06:30N 24°20' E 118°12'1 1.4
2017-Sep-19 05:56N 24°20' E 118°13'0 0.0
2017-Sep-19 05:29N 24°20' E 118°13'0 0.0
2017-Sep-19 04:56N 24°20' E 118°13'0 0.1
2017-Sep-19 04:23N 24°20' E 118°13'0 0.0
2017-Sep-19 03:59N 24°20' E 118°13'0 0.1
2017-Sep-19 03:26N 24°20' E 118°13'0 0.0
2017-Sep-19 02:56N 24°20' E 118°13'0 0.0
2017-Sep-19 02:29N 24°20' E 118°13'0 0.0
2017-Sep-19 01:59N 24°20' E 118°13'0 0.0
2017-Sep-19 01:29N 24°20' E 118°13'0 0.1
2017-Sep-19 00:56N 24°20' E 118°13'0 0.0
2017-Sep-19 00:29N 24°20' E 118°13'0 0.0
2017-Sep-18 23:59N 24°20' E 118°13'0 0.0
2017-Sep-18 23:29N 24°20' E 118°13'0 0.1
2017-Sep-18 22:59N 24°20' E 118°13'0 0.0
2017-Sep-18 22:29N 24°20' E 118°13'0 0.1
2017-Sep-18 21:59N 24°20' E 118°13'0 0.2
2017-Sep-18 21:26N 24°20' E 118°13'0 0.1
2017-Sep-18 20:59N 24°20' E 118°13'0 0.1
2017-Sep-18 20:29N 24°20' E 118°13'0 0.0
2017-Sep-18 19:59N 24°20' E 118°13'0 0.0
2017-Sep-18 19:29N 24°20' E 118°13'0 0.1
2017-Sep-18 18:59N 24°20' E 118°13'0 0.0
2017-Sep-18 18:29N 24°20' E 118°13'0 0.1
2017-Sep-18 17:59N 24°20' E 118°13'0 0.0
2017-Sep-18 17:29N 24°20' E 118°13'0 0.0
2017-Sep-18 16:59N 24°20' E 118°13'0 0.0
2017-Sep-18 16:29N 24°20' E 118°13'0 0.1
2017-Sep-18 15:56N 24°20' E 118°13'0 0.3
2017-Sep-18 15:26N 24°20' E 118°13'2 3.8
2017-Sep-18 15:00N 24°19' E 118°14'4 7.1
2017-Sep-18 14:30N 24°15' E 118°16'4 7.7
2017-Sep-18 13:56N 24°13' E 118°20'4411.1
2017-Sep-18 09:56N 24°20' E 119°08'511.6
2017-Sep-18 09:28N 24°19' E 119°14'511.5
2017-Sep-18 09:00N 24°19' E 119°20'611.4
2017-Sep-18 08:30N 24°18' E 119°26'511.0
2017-Sep-18 08:00N 24°18' E 119°32'510.5
2017-Sep-18 07:29N 24°18' E 119°38'610.7
2017-Sep-18 06:58N 24°17' E 119°44'610.8
2017-Sep-18 06:26N 24°17' E 119°50'112 3.5
2017-Sep-16 22:39N 23°17' E 118°07'210.7
2017-Sep-16 22:30N 23°16' E 118°05'1711.7
2017-Sep-16 21:03N 23°05' E 117°51'110.1
2017-Sep-16 20:59N 23°05' E 117°50'611.2
2017-Sep-16 20:28N 23°01' E 117°46'511.0
2017-Sep-16 20:00N 22°58' E 117°41'510.8
2017-Sep-16 19:30N 22°55' E 117°36'510.6
2017-Sep-16 19:00N 22°52' E 117°32'510.6
2017-Sep-16 18:30N 22°50' E 117°27'510.5
2017-Sep-16 18:00N 22°47' E 117°22'510.5
2017-Sep-16 17:30N 22°44' E 117°17'510.9
2017-Sep-16 17:00N 22°44' E 117°11'510.9
2017-Sep-16 16:30N 22°42' E 117°05'510.5
2017-Sep-16 15:59N 22°41' E 116°60'151 5.4
2017-Sep-15 11:51N 22°34' E 114°16'1 2.1
2017-Sep-15 11:26N 22°34' E 114°17'17 3.2
2017-Sep-15 06:12N 22°20' E 114°07'  

Dump ship's entire track history